This is the latest recevied weather packets stored in our database for station/object SV2LPQ-2. If no packets are shown the sender has not sent any weather packets the latest 1 day(s).
| Time | Temp. | Humidity | Pressure | Rain* | Wind** | Luminosity | Snow |
|---|---|---|---|---|---|---|---|
| 1778044576 | 15° C | 69% | 1042.5 hPa | 0 mm | - | - | - |
| 1778044076 | 14.44° C | 72% | 1042.5 hPa | 0 mm | - | - | - |
| 1778043576 | 13.33° C | 76% | 1042.5 hPa | 0 mm | - | - | - |
| 1778043076 | 13.33° C | 77% | 1042.5 hPa | 0 mm | - | - | - |
| 1778042576 | 12.78° C | 79% | 1042.5 hPa | 0 mm | - | - | - |
| 1778042076 | 12.22° C | 80% | 1042.5 hPa | 0 mm | - | - | - |
| 1778041576 | 11.11° C | 83% | 1042.5 hPa | 0 mm | - | - | - |
| 1778041076 | 10.56° C | 84% | 1042.5 hPa | 0 mm | - | - | - |
| 1778040576 | 10° C | 85% | 1042.5 hPa | 0 mm | - | - | - |
| 1778040076 | 9.44° C | 84% | 1042.5 hPa | 0 mm | - | - | - |
| 1778039576 | 9.44° C | 84% | 1042.5 hPa | 0 mm | - | - | - |
| 1778039076 | 9.44° C | 84% | 1042.5 hPa | 0 mm | - | - | - |
| 1778038075 | 8.89° C | 84% | 1042.5 hPa | 0 mm | - | - | - |
| 1778037575 | 8.89° C | 84% | 1042.5 hPa | 0 mm | - | - | - |
| 1778036575 | 9.44° C | 84% | 1042.5 hPa | 0 mm | - | - | - |
| 1778036075 | 9.44° C | 84% | 1042.5 hPa | 0 mm | - | - | - |
| 1778035575 | 9.44° C | 84% | 1042.5 hPa | 0 mm | - | - | - |
| 1778035075 | 9.44° C | 83% | 1042.5 hPa | 0 mm | - | - | - |
| 1778034575 | 10° C | 84% | 1042.5 hPa | 0 mm | - | - | - |
| 1778034075 | 10° C | 84% | 1042.5 hPa | 0 mm | - | - | - |
| 1778033575 | 9.44° C | 84% | 1042.5 hPa | 0 mm | - | - | - |
| 1778033075 | 9.44° C | 83% | 1042.5 hPa | 0 mm | - | - | - |
| 1778032575 | 10° C | 83% | 1042.5 hPa | 0 mm | - | - | - |
| 1778032075 | 10° C | 82% | 1042.5 hPa | 0 mm | - | - | - |
| 1778031575 | 10° C | 82% | 1042.5 hPa | 0 mm | - | - | - |
* Rain latest hour (hover to see other rain measurements)
** Current wind speed in m/s (hover to see current wind gust speed)